sensor_id;sensor_type;location;lat;lon;timestamp;P1;durP1;ratioP1;P2;durP2;ratioP2
9689;SDS011;4884;42.614;23.340;2022-12-07T00:01:36;62.97;;;41.50;;
9689;SDS011;4884;42.614;23.340;2022-12-07T00:04:04;68.10;;;40.57;;
9689;SDS011;4884;42.614;23.340;2022-12-07T00:06:30;63.07;;;38.10;;
9689;SDS011;4884;42.614;23.340;2022-12-07T00:08:57;62.20;;;38.17;;
9689;SDS011;4884;42.614;23.340;2022-12-07T00:11:22;62.50;;;38.53;;
9689;SDS011;4884;42.614;23.340;2022-12-07T00:14:07;59.20;;;38.97;;
9689;SDS011;4884;42.614;23.340;2022-12-07T00:16:35;64.07;;;35.87;;
9689;SDS011;4884;42.614;23.340;2022-12-07T00:19:02;56.83;;;35.27;;
9689;SDS011;4884;42.614;23.340;2022-12-07T00:21:29;58.10;;;32.27;;
9689;SDS011;4884;42.614;23.340;2022-12-07T00:23:56;51.37;;;33.30;;
9689;SDS011;4884;42.614;23.340;2022-12-07T00:26:29;53.70;;;30.53;;
9689;SDS011;4884;42.614;23.340;2022-12-07T00:28:57;55.70;;;32.63;;
9689;SDS011;4884;42.614;23.340;2022-12-07T00:31:25;58.17;;;33.70;;
9689;SDS011;4884;42.614;23.340;2022-12-07T00:33:55;56.50;;;33.90;;
9689;SDS011;4884;42.614;23.340;2022-12-07T00:36:23;57.33;;;32.57;;
9689;SDS011;4884;42.614;23.340;2022-12-07T00:38:49;48.10;;;31.77;;
9689;SDS011;4884;42.614;23.340;2022-12-07T00:41:17;55.47;;;34.83;;
9689;SDS011;4884;42.614;23.340;2022-12-07T00:43:44;52.90;;;31.97;;
9689;SDS011;4884;42.614;23.340;2022-12-07T00:46:11;47.07;;;30.33;;
9689;SDS011;4884;42.614;23.340;2022-12-07T00:48:36;51.47;;;31.60;;
9689;SDS011;4884;42.614;23.340;2022-12-07T00:51:02;51.53;;;33.43;;
9689;SDS011;4884;42.614;23.340;2022-12-07T00:53:28;48.30;;;32.43;;
9689;SDS011;4884;42.614;23.340;2022-12-07T00:55:54;52.87;;;32.73;;
9689;SDS011;4884;42.614;23.340;2022-12-07T00:58:21;55.97;;;34.67;;
9689;SDS011;4884;42.614;23.340;2022-12-07T01:00:47;65.33;;;37.80;;
9689;SDS011;4884;42.614;23.340;2022-12-07T01:03:13;64.03;;;36.20;;
9689;SDS011;4884;42.614;23.340;2022-12-07T01:05:39;59.00;;;37.13;;
9689;SDS011;4884;42.614;23.340;2022-12-07T01:08:05;66.50;;;42.47;;
9689;SDS011;4884;42.614;23.340;2022-12-07T01:10:31;67.90;;;42.50;;
9689;SDS011;4884;42.614;23.340;2022-12-07T01:12:57;65.30;;;42.40;;
9689;SDS011;4884;42.614;23.340;2022-12-07T01:15:23;67.97;;;41.20;;
9689;SDS011;4884;42.614;23.340;2022-12-07T01:17:48;66.73;;;41.70;;
9689;SDS011;4884;42.614;23.340;2022-12-07T01:20:14;64.60;;;42.87;;
9689;SDS011;4884;42.614;23.340;2022-12-07T01:22:41;68.00;;;40.03;;
9689;SDS011;4884;42.614;23.340;2022-12-07T01:25:07;62.43;;;40.13;;
9689;SDS011;4884;42.614;23.340;2022-12-07T01:27:33;64.60;;;41.47;;
9689;SDS011;4884;42.614;23.340;2022-12-07T01:29:59;63.90;;;41.13;;
9689;SDS011;4884;42.614;23.340;2022-12-07T01:32:25;58.83;;;37.97;;
9689;SDS011;4884;42.614;23.340;2022-12-07T01:34:51;56.53;;;34.77;;
9689;SDS011;4884;42.614;23.340;2022-12-07T01:37:16;64.80;;;39.70;;
9689;SDS011;4884;42.614;23.340;2022-12-07T01:39:41;75.90;;;44.10;;
9689;SDS011;4884;42.614;23.340;2022-12-07T01:42:09;66.17;;;40.00;;
9689;SDS011;4884;42.614;23.340;2022-12-07T01:47:38;63.93;;;40.00;;
9689;SDS011;4884;42.614;23.340;2022-12-07T01:50:04;69.30;;;40.77;;
9689;SDS011;4884;42.614;23.340;2022-12-07T01:52:30;62.67;;;39.47;;
9689;SDS011;4884;42.614;23.340;2022-12-07T01:55:01;65.43;;;43.57;;
9689;SDS011;4884;42.614;23.340;2022-12-07T01:57:30;63.73;;;41.23;;
9689;SDS011;4884;42.614;23.340;2022-12-07T01:59:56;70.77;;;46.97;;
9689;SDS011;4884;42.614;23.340;2022-12-07T02:02:26;66.00;;;44.10;;
9689;SDS011;4884;42.614;23.340;2022-12-07T02:04:53;68.53;;;42.63;;
9689;SDS011;4884;42.614;23.340;2022-12-07T02:07:20;73.40;;;44.13;;
9689;SDS011;4884;42.614;23.340;2022-12-07T02:09:45;68.33;;;42.27;;
9689;SDS011;4884;42.614;23.340;2022-12-07T02:12:11;71.80;;;45.20;;
9689;SDS011;4884;42.614;23.340;2022-12-07T02:14:36;67.73;;;41.73;;
9689;SDS011;4884;42.614;23.340;2022-12-07T02:17:20;78.50;;;44.13;;
9689;SDS011;4884;42.614;23.340;2022-12-07T02:19:59;71.73;;;41.30;;
9689;SDS011;4884;42.614;23.340;2022-12-07T02:28:09;75.03;;;42.23;;
9689;SDS011;4884;42.614;23.340;2022-12-07T02:30:40;75.20;;;46.40;;
9689;SDS011;4884;42.614;23.340;2022-12-07T02:33:13;82.83;;;46.07;;
9689;SDS011;4884;42.614;23.340;2022-12-07T02:41:05;63.90;;;38.07;;
9689;SDS011;4884;42.614;23.340;2022-12-07T02:43:37;66.57;;;40.43;;
9689;SDS011;4884;42.614;23.340;2022-12-07T02:46:05;64.30;;;36.53;;
9689;SDS011;4884;42.614;23.340;2022-12-07T02:48:34;62.90;;;35.50;;
9689;SDS011;4884;42.614;23.340;2022-12-07T02:51:01;60.73;;;35.90;;
9689;SDS011;4884;42.614;23.340;2022-12-07T02:55:58;57.43;;;34.40;;
9689;SDS011;4884;42.614;23.340;2022-12-07T02:58:32;56.00;;;34.97;;
9689;SDS011;4884;42.614;23.340;2022-12-07T03:01:26;63.03;;;38.67;;
9689;SDS011;4884;42.614;23.340;2022-12-07T03:03:58;54.73;;;35.40;;
9689;SDS011;4884;42.614;23.340;2022-12-07T03:06:40;64.90;;;36.40;;
9689;SDS011;4884;42.614;23.340;2022-12-07T03:09:15;65.53;;;37.30;;
9689;SDS011;4884;42.614;23.340;2022-12-07T03:11:50;53.97;;;32.43;;
9689;SDS011;4884;42.614;23.340;2022-12-07T03:14:19;49.67;;;31.47;;
9689;SDS011;4884;42.614;23.340;2022-12-07T03:16:53;44.27;;;31.53;;
9689;SDS011;4884;42.614;23.340;2022-12-07T03:19:23;47.50;;;27.70;;
9689;SDS011;4884;42.614;23.340;2022-12-07T03:21:57;39.03;;;23.90;;
9689;SDS011;4884;42.614;23.340;2022-12-07T03:24:30;33.87;;;23.10;;
9689;SDS011;4884;42.614;23.340;2022-12-07T03:27:06;24.07;;;15.67;;
9689;SDS011;4884;42.614;23.340;2022-12-07T03:29:35;29.33;;;15.40;;
9689;SDS011;4884;42.614;23.340;2022-12-07T03:34:51;31.13;;;20.73;;
9689;SDS011;4884;42.614;23.340;2022-12-07T03:37:26;39.07;;;22.33;;
9689;SDS011;4884;42.614;23.340;2022-12-07T03:42:33;35.80;;;24.40;;
9689;SDS011;4884;42.614;23.340;2022-12-07T03:44:59;25.00;;;17.70;;
9689;SDS011;4884;42.614;23.340;2022-12-07T03:47:28;28.50;;;18.20;;
9689;SDS011;4884;42.614;23.340;2022-12-07T03:50:06;29.27;;;20.23;;
9689;SDS011;4884;42.614;23.340;2022-12-07T03:52:40;26.00;;;18.50;;
9689;SDS011;4884;42.614;23.340;2022-12-07T03:55:11;30.03;;;19.47;;
9689;SDS011;4884;42.614;23.340;2022-12-07T03:57:41;21.93;;;13.93;;
9689;SDS011;4884;42.614;23.340;2022-12-07T04:00:08;20.10;;;11.93;;
9689;SDS011;4884;42.614;23.340;2022-12-07T04:02:35;17.70;;;10.67;;
9689;SDS011;4884;42.614;23.340;2022-12-07T04:05:00;19.53;;;14.17;;
9689;SDS011;4884;42.614;23.340;2022-12-07T04:07:26;18.83;;;12.87;;
9689;SDS011;4884;42.614;23.340;2022-12-07T04:09:51;20.43;;;12.77;;
9689;SDS011;4884;42.614;23.340;2022-12-07T04:12:19;22.90;;;15.07;;
9689;SDS011;4884;42.614;23.340;2022-12-07T04:14:45;28.63;;;15.77;;
9689;SDS011;4884;42.614;23.340;2022-12-07T04:17:10;24.87;;;14.90;;
9689;SDS011;4884;42.614;23.340;2022-12-07T04:19:36;24.23;;;15.00;;
9689;SDS011;4884;42.614;23.340;2022-12-07T04:22:02;27.67;;;15.23;;
9689;SDS011;4884;42.614;23.340;2022-12-07T04:24:28;25.97;;;16.57;;
9689;SDS011;4884;42.614;23.340;2022-12-07T04:26:54;24.47;;;15.90;;
9689;SDS011;4884;42.614;23.340;2022-12-07T04:29:20;21.80;;;14.90;;
9689;SDS011;4884;42.614;23.340;2022-12-07T04:31:46;34.13;;;18.40;;
9689;SDS011;4884;42.614;23.340;2022-12-07T04:34:12;26.70;;;15.87;;
9689;SDS011;4884;42.614;23.340;2022-12-07T04:36:38;28.57;;;19.03;;
9689;SDS011;4884;42.614;23.340;2022-12-07T04:39:04;30.67;;;20.27;;
9689;SDS011;4884;42.614;23.340;2022-12-07T04:41:30;25.93;;;18.33;;
9689;SDS011;4884;42.614;23.340;2022-12-07T04:43:56;32.00;;;21.93;;
9689;SDS011;4884;42.614;23.340;2022-12-07T04:46:23;35.00;;;20.33;;
9689;SDS011;4884;42.614;23.340;2022-12-07T04:48:50;33.07;;;23.47;;
9689;SDS011;4884;42.614;23.340;2022-12-07T04:51:17;36.23;;;24.97;;
9689;SDS011;4884;42.614;23.340;2022-12-07T04:53:44;37.87;;;24.73;;
9689;SDS011;4884;42.614;23.340;2022-12-07T04:56:09;42.83;;;27.27;;
9689;SDS011;4884;42.614;23.340;2022-12-07T04:58:34;45.60;;;31.10;;
9689;SDS011;4884;42.614;23.340;2022-12-07T05:01:00;41.57;;;30.50;;
9689;SDS011;4884;42.614;23.340;2022-12-07T05:03:25;43.00;;;29.20;;
9689;SDS011;4884;42.614;23.340;2022-12-07T05:05:50;40.13;;;26.63;;
9689;SDS011;4884;42.614;23.340;2022-12-07T05:08:16;40.03;;;23.83;;
9689;SDS011;4884;42.614;23.340;2022-12-07T05:10:41;32.93;;;23.70;;
9689;SDS011;4884;42.614;23.340;2022-12-07T05:13:06;40.07;;;27.53;;
9689;SDS011;4884;42.614;23.340;2022-12-07T05:15:32;36.00;;;24.77;;
9689;SDS011;4884;42.614;23.340;2022-12-07T05:17:57;30.93;;;22.83;;
9689;SDS011;4884;42.614;23.340;2022-12-07T05:20:22;40.90;;;28.83;;
9689;SDS011;4884;42.614;23.340;2022-12-07T05:22:48;38.93;;;29.13;;
9689;SDS011;4884;42.614;23.340;2022-12-07T05:25:13;47.40;;;30.57;;
9689;SDS011;4884;42.614;23.340;2022-12-07T05:27:38;52.73;;;31.43;;
9689;SDS011;4884;42.614;23.340;2022-12-07T05:30:04;49.67;;;31.00;;
9689;SDS011;4884;42.614;23.340;2022-12-07T05:32:30;67.87;;;35.13;;
9689;SDS011;4884;42.614;23.340;2022-12-07T05:34:55;64.37;;;37.73;;
9689;SDS011;4884;42.614;23.340;2022-12-07T05:37:21;59.53;;;35.43;;
9689;SDS011;4884;42.614;23.340;2022-12-07T05:39:46;54.80;;;32.87;;
9689;SDS011;4884;42.614;23.340;2022-12-07T05:42:12;51.40;;;32.60;;
9689;SDS011;4884;42.614;23.340;2022-12-07T05:44:40;170.57;;;80.90;;
9689;SDS011;4884;42.614;23.340;2022-12-07T05:47:10;54.43;;;32.90;;
9689;SDS011;4884;42.614;23.340;2022-12-07T05:49:35;72.20;;;40.53;;
9689;SDS011;4884;42.614;23.340;2022-12-07T05:52:01;46.07;;;29.63;;
9689;SDS011;4884;42.614;23.340;2022-12-07T05:54:27;59.97;;;36.97;;
9689;SDS011;4884;42.614;23.340;2022-12-07T05:56:53;63.57;;;35.43;;
9689;SDS011;4884;42.614;23.340;2022-12-07T05:59:18;35.10;;;21.27;;
9689;SDS011;4884;42.614;23.340;2022-12-07T06:01:57;34.90;;;21.67;;
9689;SDS011;4884;42.614;23.340;2022-12-07T06:04:25;29.37;;;18.00;;
9689;SDS011;4884;42.614;23.340;2022-12-07T06:06:51;25.43;;;14.63;;
9689;SDS011;4884;42.614;23.340;2022-12-07T06:09:18;29.43;;;18.53;;
9689;SDS011;4884;42.614;23.340;2022-12-07T06:11:43;32.27;;;17.90;;
9689;SDS011;4884;42.614;23.340;2022-12-07T06:14:27;30.43;;;20.40;;
9689;SDS011;4884;42.614;23.340;2022-12-07T06:16:53;30.53;;;19.47;;
9689;SDS011;4884;42.614;23.340;2022-12-07T06:19:18;30.97;;;18.80;;
9689;SDS011;4884;42.614;23.340;2022-12-07T06:21:43;41.10;;;24.03;;
9689;SDS011;4884;42.614;23.340;2022-12-07T06:24:10;39.40;;;23.67;;
9689;SDS011;4884;42.614;23.340;2022-12-07T06:26:37;42.40;;;24.67;;
9689;SDS011;4884;42.614;23.340;2022-12-07T06:29:02;42.20;;;25.33;;
9689;SDS011;4884;42.614;23.340;2022-12-07T06:31:28;42.10;;;24.67;;
9689;SDS011;4884;42.614;23.340;2022-12-07T06:34:00;43.10;;;26.03;;
9689;SDS011;4884;42.614;23.340;2022-12-07T06:36:26;45.90;;;26.53;;
9689;SDS011;4884;42.614;23.340;2022-12-07T06:38:52;53.03;;;29.60;;
9689;SDS011;4884;42.614;23.340;2022-12-07T06:41:18;53.37;;;31.53;;
9689;SDS011;4884;42.614;23.340;2022-12-07T06:43:43;57.60;;;32.40;;
9689;SDS011;4884;42.614;23.340;2022-12-07T06:46:08;62.13;;;34.83;;
9689;SDS011;4884;42.614;23.340;2022-12-07T06:48:34;49.90;;;28.97;;
9689;SDS011;4884;42.614;23.340;2022-12-07T06:50:59;49.50;;;32.83;;
9689;SDS011;4884;42.614;23.340;2022-12-07T06:53:24;50.03;;;31.17;;
9689;SDS011;4884;42.614;23.340;2022-12-07T06:55:50;45.10;;;28.77;;
9689;SDS011;4884;42.614;23.340;2022-12-07T06:58:15;46.70;;;31.33;;
9689;SDS011;4884;42.614;23.340;2022-12-07T07:00:41;55.20;;;32.90;;
9689;SDS011;4884;42.614;23.340;2022-12-07T07:03:06;62.67;;;37.77;;
9689;SDS011;4884;42.614;23.340;2022-12-07T07:05:32;65.67;;;38.43;;
9689;SDS011;4884;42.614;23.340;2022-12-07T07:07:57;58.13;;;36.27;;
9689;SDS011;4884;42.614;23.340;2022-12-07T07:10:23;54.03;;;32.57;;
9689;SDS011;4884;42.614;23.340;2022-12-07T07:12:48;53.77;;;35.17;;
9689;SDS011;4884;42.614;23.340;2022-12-07T07:15:13;59.47;;;37.80;;
9689;SDS011;4884;42.614;23.340;2022-12-07T07:17:39;57.60;;;36.20;;
9689;SDS011;4884;42.614;23.340;2022-12-07T07:20:05;57.67;;;35.07;;
9689;SDS011;4884;42.614;23.340;2022-12-07T07:22:30;51.13;;;32.50;;
9689;SDS011;4884;42.614;23.340;2022-12-07T07:24:56;63.80;;;36.87;;
9689;SDS011;4884;42.614;23.340;2022-12-07T07:27:21;64.80;;;37.33;;
9689;SDS011;4884;42.614;23.340;2022-12-07T07:29:46;71.03;;;38.47;;
9689;SDS011;4884;42.614;23.340;2022-12-07T07:32:12;71.27;;;39.13;;
9689;SDS011;4884;42.614;23.340;2022-12-07T07:34:37;64.53;;;36.30;;
9689;SDS011;4884;42.614;23.340;2022-12-07T07:37:02;64.37;;;37.70;;
9689;SDS011;4884;42.614;23.340;2022-12-07T07:39:28;63.53;;;38.50;;
9689;SDS011;4884;42.614;23.340;2022-12-07T07:41:53;84.47;;;41.43;;
9689;SDS011;4884;42.614;23.340;2022-12-07T07:44:19;132.63;;;70.53;;
9689;SDS011;4884;42.614;23.340;2022-12-07T07:46:44;80.57;;;47.83;;
9689;SDS011;4884;42.614;23.340;2022-12-07T07:49:09;71.47;;;39.93;;
9689;SDS011;4884;42.614;23.340;2022-12-07T07:51:36;96.80;;;48.63;;
9689;SDS011;4884;42.614;23.340;2022-12-07T07:54:01;81.53;;;41.80;;
9689;SDS011;4884;42.614;23.340;2022-12-07T07:56:27;82.40;;;48.67;;
9689;SDS011;4884;42.614;23.340;2022-12-07T07:58:52;107.87;;;66.47;;
9689;SDS011;4884;42.614;23.340;2022-12-07T08:01:18;84.63;;;48.37;;
9689;SDS011;4884;42.614;23.340;2022-12-07T08:03:45;72.70;;;41.77;;
9689;SDS011;4884;42.614;23.340;2022-12-07T08:06:11;67.97;;;37.23;;
9689;SDS011;4884;42.614;23.340;2022-12-07T08:08:36;71.50;;;38.80;;
9689;SDS011;4884;42.614;23.340;2022-12-07T08:11:04;65.20;;;37.20;;
9689;SDS011;4884;42.614;23.340;2022-12-07T08:13:30;62.07;;;38.77;;
9689;SDS011;4884;42.614;23.340;2022-12-07T08:15:55;70.80;;;39.77;;
9689;SDS011;4884;42.614;23.340;2022-12-07T08:18:21;64.37;;;39.17;;
9689;SDS011;4884;42.614;23.340;2022-12-07T08:20:46;59.50;;;36.23;;
9689;SDS011;4884;42.614;23.340;2022-12-07T08:23:12;72.87;;;39.13;;
9689;SDS011;4884;42.614;23.340;2022-12-07T08:25:38;57.10;;;32.87;;
9689;SDS011;4884;42.614;23.340;2022-12-07T08:28:04;56.53;;;32.10;;
9689;SDS011;4884;42.614;23.340;2022-12-07T08:30:29;65.00;;;37.53;;
9689;SDS011;4884;42.614;23.340;2022-12-07T08:32:55;71.63;;;45.00;;
9689;SDS011;4884;42.614;23.340;2022-12-07T08:35:21;65.13;;;36.70;;
9689;SDS011;4884;42.614;23.340;2022-12-07T08:37:46;90.43;;;62.07;;
9689;SDS011;4884;42.614;23.340;2022-12-07T08:40:12;59.17;;;39.37;;
9689;SDS011;4884;42.614;23.340;2022-12-07T08:42:43;70.43;;;42.77;;
9689;SDS011;4884;42.614;23.340;2022-12-07T08:45:10;78.23;;;43.13;;
9689;SDS011;4884;42.614;23.340;2022-12-07T08:47:40;82.97;;;46.50;;
9689;SDS011;4884;42.614;23.340;2022-12-07T08:50:08;58.37;;;35.13;;
9689;SDS011;4884;42.614;23.340;2022-12-07T08:52:35;66.97;;;37.40;;
9689;SDS011;4884;42.614;23.340;2022-12-07T08:55:01;65.97;;;38.30;;
9689;SDS011;4884;42.614;23.340;2022-12-07T08:57:27;64.83;;;38.67;;
9689;SDS011;4884;42.614;23.340;2022-12-07T08:59:53;63.23;;;40.67;;
9689;SDS011;4884;42.614;23.340;2022-12-07T09:02:18;64.53;;;39.00;;
9689;SDS011;4884;42.614;23.340;2022-12-07T09:04:44;61.33;;;37.20;;
9689;SDS011;4884;42.614;23.340;2022-12-07T09:07:09;56.93;;;35.67;;
9689;SDS011;4884;42.614;23.340;2022-12-07T09:09:34;58.00;;;35.60;;
9689;SDS011;4884;42.614;23.340;2022-12-07T09:12:00;64.70;;;37.87;;
9689;SDS011;4884;42.614;23.340;2022-12-07T09:14:25;58.77;;;37.30;;
9689;SDS011;4884;42.614;23.340;2022-12-07T09:16:51;62.73;;;39.93;;
9689;SDS011;4884;42.614;23.340;2022-12-07T09:19:16;62.73;;;40.43;;
9689;SDS011;4884;42.614;23.340;2022-12-07T09:21:41;55.60;;;35.07;;
9689;SDS011;4884;42.614;23.340;2022-12-07T09:24:07;64.90;;;38.70;;
9689;SDS011;4884;42.614;23.340;2022-12-07T09:26:32;74.03;;;43.83;;
9689;SDS011;4884;42.614;23.340;2022-12-07T09:28:58;71.57;;;44.67;;
9689;SDS011;4884;42.614;23.340;2022-12-07T09:31:23;59.40;;;37.63;;
9689;SDS011;4884;42.614;23.340;2022-12-07T09:33:55;54.33;;;33.47;;
9689;SDS011;4884;42.614;23.340;2022-12-07T09:36:22;60.90;;;37.00;;
9689;SDS011;4884;42.614;23.340;2022-12-07T09:38:48;55.20;;;35.83;;
9689;SDS011;4884;42.614;23.340;2022-12-07T09:41:13;66.33;;;37.87;;
9689;SDS011;4884;42.614;23.340;2022-12-07T09:43:40;56.17;;;37.07;;
9689;SDS011;4884;42.614;23.340;2022-12-07T09:46:08;54.97;;;35.03;;
9689;SDS011;4884;42.614;23.340;2022-12-07T09:48:37;61.27;;;43.57;;
9689;SDS011;4884;42.614;23.340;2022-12-07T09:51:11;71.10;;;43.97;;
9689;SDS011;4884;42.614;23.340;2022-12-07T09:53:39;65.00;;;42.07;;
9689;SDS011;4884;42.614;23.340;2022-12-07T09:56:05;64.67;;;43.07;;
9689;SDS011;4884;42.614;23.340;2022-12-07T09:58:31;70.83;;;47.53;;
9689;SDS011;4884;42.614;23.340;2022-12-07T10:01:05;66.23;;;43.40;;
9689;SDS011;4884;42.614;23.340;2022-12-07T10:03:37;57.53;;;38.03;;
9689;SDS011;4884;42.614;23.340;2022-12-07T10:06:04;54.77;;;36.43;;
9689;SDS011;4884;42.614;23.340;2022-12-07T10:08:31;53.00;;;35.57;;
9689;SDS011;4884;42.614;23.340;2022-12-07T10:10:56;53.27;;;36.43;;
9689;SDS011;4884;42.614;23.340;2022-12-07T10:13:33;60.83;;;37.47;;
9689;SDS011;4884;42.614;23.340;2022-12-07T10:16:06;49.87;;;32.73;;
9689;SDS011;4884;42.614;23.340;2022-12-07T10:18:49;55.87;;;33.47;;
9689;SDS011;4884;42.614;23.340;2022-12-07T10:21:25;50.33;;;32.10;;
9689;SDS011;4884;42.614;23.340;2022-12-07T10:26:38;46.87;;;31.47;;
9689;SDS011;4884;42.614;23.340;2022-12-07T10:29:14;50.73;;;33.73;;
9689;SDS011;4884;42.614;23.340;2022-12-07T10:32:08;53.20;;;35.10;;
9689;SDS011;4884;42.614;23.340;2022-12-07T10:34:38;53.40;;;38.00;;
9689;SDS011;4884;42.614;23.340;2022-12-07T11:09:00;48.50;;;30.63;;
9689;SDS011;4884;42.614;23.340;2022-12-07T11:14:16;51.30;;;33.50;;
9689;SDS011;4884;42.614;23.340;2022-12-07T11:38:17;25.50;;;16.57;;
9689;SDS011;4884;42.614;23.340;2022-12-07T11:40:49;21.80;;;14.17;;
9689;SDS011;4884;42.614;23.340;2022-12-07T11:43:30;25.83;;;14.70;;
9689;SDS011;4884;42.614;23.340;2022-12-07T11:45:59;33.50;;;18.77;;
9689;SDS011;4884;42.614;23.340;2022-12-07T11:50:56;34.87;;;21.87;;
9689;SDS011;4884;42.614;23.340;2022-12-07T11:59:02;33.83;;;21.50;;
9689;SDS011;4884;42.614;23.340;2022-12-07T12:01:42;19.20;;;13.60;;
9689;SDS011;4884;42.614;23.340;2022-12-07T12:06:47;15.87;;;11.83;;
9689;SDS011;4884;42.614;23.340;2022-12-07T12:09:58;15.77;;;11.13;;
9689;SDS011;4884;42.614;23.340;2022-12-07T12:14:44;14.87;;;10.40;;
9689;SDS011;4884;42.614;23.340;2022-12-07T12:17:31;14.13;;;8.67;;
9689;SDS011;4884;42.614;23.340;2022-12-07T12:25:36;14.00;;;9.83;;
9689;SDS011;4884;42.614;23.340;2022-12-07T12:28:05;16.20;;;9.80;;
9689;SDS011;4884;42.614;23.340;2022-12-07T12:30:33;10.80;;;9.30;;
9689;SDS011;4884;42.614;23.340;2022-12-07T12:33:31;21.00;;;11.47;;
9689;SDS011;4884;42.614;23.340;2022-12-07T12:41:50;18.73;;;13.03;;
9689;SDS011;4884;42.614;23.340;2022-12-07T12:49:30;17.63;;;11.10;;
9689;SDS011;4884;42.614;23.340;2022-12-07T12:51:59;17.33;;;10.77;;
9689;SDS011;4884;42.614;23.340;2022-12-07T12:54:29;14.23;;;10.97;;
9689;SDS011;4884;42.614;23.340;2022-12-07T12:59:31;17.73;;;11.93;;
9689;SDS011;4884;42.614;23.340;2022-12-07T13:15:43;28.90;;;15.07;;
9689;SDS011;4884;42.614;23.340;2022-12-07T13:23:22;21.63;;;16.90;;
9689;SDS011;4884;42.614;23.340;2022-12-07T13:25:51;27.30;;;17.73;;
9689;SDS011;4884;42.614;23.340;2022-12-07T13:28:21;24.97;;;15.00;;
9689;SDS011;4884;42.614;23.340;2022-12-07T13:30:59;27.93;;;20.87;;
9689;SDS011;4884;42.614;23.340;2022-12-07T13:33:28;31.07;;;22.17;;
9689;SDS011;4884;42.614;23.340;2022-12-07T13:35:54;24.87;;;19.13;;
9689;SDS011;4884;42.614;23.340;2022-12-07T13:41:16;25.10;;;14.90;;
9689;SDS011;4884;42.614;23.340;2022-12-07T13:43:48;26.13;;;14.73;;
9689;SDS011;4884;42.614;23.340;2022-12-07T13:46:15;24.77;;;14.60;;
9689;SDS011;4884;42.614;23.340;2022-12-07T13:48:47;23.57;;;14.80;;
9689;SDS011;4884;42.614;23.340;2022-12-07T13:51:21;20.87;;;13.73;;
9689;SDS011;4884;42.614;23.340;2022-12-07T13:53:54;24.00;;;15.03;;
9689;SDS011;4884;42.614;23.340;2022-12-07T13:56:35;18.63;;;14.67;;
9689;SDS011;4884;42.614;23.340;2022-12-07T13:59:01;23.63;;;15.37;;
9689;SDS011;4884;42.614;23.340;2022-12-07T14:01:27;28.53;;;20.37;;
9689;SDS011;4884;42.614;23.340;2022-12-07T14:03:55;38.60;;;24.97;;
9689;SDS011;4884;42.614;23.340;2022-12-07T14:06:22;30.53;;;19.43;;
9689;SDS011;4884;42.614;23.340;2022-12-07T14:09:05;24.57;;;17.07;;
9689;SDS011;4884;42.614;23.340;2022-12-07T14:11:33;26.33;;;16.53;;
9689;SDS011;4884;42.614;23.340;2022-12-07T14:14:00;33.00;;;21.00;;
9689;SDS011;4884;42.614;23.340;2022-12-07T14:16:33;40.47;;;26.33;;
9689;SDS011;4884;42.614;23.340;2022-12-07T14:19:01;35.23;;;23.27;;
9689;SDS011;4884;42.614;23.340;2022-12-07T14:21:31;73.60;;;38.33;;
9689;SDS011;4884;42.614;23.340;2022-12-07T14:24:19;45.20;;;28.47;;
9689;SDS011;4884;42.614;23.340;2022-12-07T14:26:48;23.17;;;14.40;;
9689;SDS011;4884;42.614;23.340;2022-12-07T14:29:22;35.20;;;23.13;;
9689;SDS011;4884;42.614;23.340;2022-12-07T14:31:56;54.63;;;31.47;;
9689;SDS011;4884;42.614;23.340;2022-12-07T14:34:23;69.83;;;44.50;;
9689;SDS011;4884;42.614;23.340;2022-12-07T14:36:48;92.27;;;58.07;;
9689;SDS011;4884;42.614;23.340;2022-12-07T14:39:14;57.40;;;38.33;;
9689;SDS011;4884;42.614;23.340;2022-12-07T14:41:39;55.50;;;35.20;;
9689;SDS011;4884;42.614;23.340;2022-12-07T14:44:18;48.07;;;26.47;;
9689;SDS011;4884;42.614;23.340;2022-12-07T14:46:44;40.00;;;25.33;;
9689;SDS011;4884;42.614;23.340;2022-12-07T14:49:10;49.50;;;30.50;;
9689;SDS011;4884;42.614;23.340;2022-12-07T14:51:36;231.00;;;137.03;;
9689;SDS011;4884;42.614;23.340;2022-12-07T14:54:03;156.90;;;97.67;;
9689;SDS011;4884;42.614;23.340;2022-12-07T14:56:30;67.50;;;44.27;;
9689;SDS011;4884;42.614;23.340;2022-12-07T14:58:55;86.83;;;54.00;;
9689;SDS011;4884;42.614;23.340;2022-12-07T15:01:21;63.50;;;40.07;;
9689;SDS011;4884;42.614;23.340;2022-12-07T15:03:46;58.17;;;39.33;;
9689;SDS011;4884;42.614;23.340;2022-12-07T15:06:15;69.40;;;39.70;;
9689;SDS011;4884;42.614;23.340;2022-12-07T15:08:42;67.03;;;35.67;;
9689;SDS011;4884;42.614;23.340;2022-12-07T15:11:11;49.70;;;34.57;;
9689;SDS011;4884;42.614;23.340;2022-12-07T15:13:38;67.73;;;39.77;;
9689;SDS011;4884;42.614;23.340;2022-12-07T15:16:22;165.77;;;79.67;;
9689;SDS011;4884;42.614;23.340;2022-12-07T15:18:47;87.57;;;61.10;;
9689;SDS011;4884;42.614;23.340;2022-12-07T15:21:13;55.67;;;40.43;;
9689;SDS011;4884;42.614;23.340;2022-12-07T15:23:40;50.53;;;31.27;;
9689;SDS011;4884;42.614;23.340;2022-12-07T15:26:06;100.10;;;51.97;;
9689;SDS011;4884;42.614;23.340;2022-12-07T15:28:32;48.67;;;30.90;;
9689;SDS011;4884;42.614;23.340;2022-12-07T15:30:58;97.53;;;50.83;;
9689;SDS011;4884;42.614;23.340;2022-12-07T15:33:24;38.90;;;26.27;;
9689;SDS011;4884;42.614;23.340;2022-12-07T15:35:50;23.87;;;16.80;;
9689;SDS011;4884;42.614;23.340;2022-12-07T15:38:16;19.13;;;14.00;;
9689;SDS011;4884;42.614;23.340;2022-12-07T15:40:41;76.87;;;43.23;;
9689;SDS011;4884;42.614;23.340;2022-12-07T15:43:10;86.90;;;53.67;;
9689;SDS011;4884;42.614;23.340;2022-12-07T15:45:55;108.90;;;65.43;;
9689;SDS011;4884;42.614;23.340;2022-12-07T15:48:20;35.80;;;25.40;;
9689;SDS011;4884;42.614;23.340;2022-12-07T15:50:46;28.37;;;21.20;;
9689;SDS011;4884;42.614;23.340;2022-12-07T15:53:11;30.10;;;18.70;;
9689;SDS011;4884;42.614;23.340;2022-12-07T15:55:38;57.30;;;37.97;;
9689;SDS011;4884;42.614;23.340;2022-12-07T15:58:04;39.83;;;28.23;;
9689;SDS011;4884;42.614;23.340;2022-12-07T16:00:30;50.43;;;33.50;;
9689;SDS011;4884;42.614;23.340;2022-12-07T16:02:55;75.07;;;51.57;;
9689;SDS011;4884;42.614;23.340;2022-12-07T16:05:20;31.70;;;21.17;;
9689;SDS011;4884;42.614;23.340;2022-12-07T16:07:46;45.07;;;29.13;;
9689;SDS011;4884;42.614;23.340;2022-12-07T16:10:12;57.97;;;40.03;;
9689;SDS011;4884;42.614;23.340;2022-12-07T16:12:37;59.17;;;39.47;;
9689;SDS011;4884;42.614;23.340;2022-12-07T16:15:03;45.27;;;33.30;;
9689;SDS011;4884;42.614;23.340;2022-12-07T16:17:29;25.93;;;17.97;;
9689;SDS011;4884;42.614;23.340;2022-12-07T16:19:54;30.33;;;20.97;;
9689;SDS011;4884;42.614;23.340;2022-12-07T16:22:19;51.83;;;34.73;;
9689;SDS011;4884;42.614;23.340;2022-12-07T16:24:45;24.17;;;17.67;;
9689;SDS011;4884;42.614;23.340;2022-12-07T16:27:10;58.13;;;38.30;;
9689;SDS011;4884;42.614;23.340;2022-12-07T16:29:35;42.07;;;29.40;;
9689;SDS011;4884;42.614;23.340;2022-12-07T16:32:01;71.37;;;45.67;;
9689;SDS011;4884;42.614;23.340;2022-12-07T16:34:26;31.93;;;22.63;;
9689;SDS011;4884;42.614;23.340;2022-12-07T16:36:51;42.30;;;26.07;;
9689;SDS011;4884;42.614;23.340;2022-12-07T16:39:17;129.97;;;81.50;;
9689;SDS011;4884;42.614;23.340;2022-12-07T16:41:44;65.97;;;37.30;;
9689;SDS011;4884;42.614;23.340;2022-12-07T16:44:12;44.80;;;30.43;;
9689;SDS011;4884;42.614;23.340;2022-12-07T16:46:38;74.93;;;63.27;;
9689;SDS011;4884;42.614;23.340;2022-12-07T16:49:04;73.37;;;63.03;;
9689;SDS011;4884;42.614;23.340;2022-12-07T16:51:30;186.10;;;92.80;;
9689;SDS011;4884;42.614;23.340;2022-12-07T16:53:56;346.53;;;157.17;;